Time;durP1;ratioP1;P1;durP2;ratioP2;P2;SDS_P1;SDS_P2;PMS_P1;PMS_P2;Temp;Humidity;BMP_temperature;BMP_pressure;BME280_temperature;BME280_humidity;BME280_pressure;Samples;Min_cycle;Max_cycle;Signal;HPM_P1;HPM_P2
2021/12/16 00:07:15;;;;;;;27.58;12.50;;;;;;;7.87;78.18;101741.09;5041402;28;20094;-79
2021/12/16 00:09:59;;;;;;;26.42;14.07;;;;;;;7.87;77.87;101740.25;5032348;28;20040;-79
2021/12/16 00:34:13;;;;;;;32.35;17.15;;;;;;;7.85;78.17;101727.09;5061805;28;20043;-79
2021/12/16 00:36:41;;;;;;;32.42;16.85;;;;;;;7.86;78.05;101728.81;5047602;28;20051;-79
2021/12/16 00:39:17;;;;;;;28.10;15.35;;;;;;;7.85;78.39;101729.72;5065089;28;20056;-79
2021/12/16 00:41:47;;;;;;;26.45;14.50;;;;;;;7.86;78.15;101728.81;5029973;28;20040;-79
2021/12/16 00:44:34;;;;;;;26.95;14.88;;;;;;;7.86;77.96;101738.53;5072833;28;20041;-79
2021/12/16 00:49:45;;;;;;;21.92;11.55;;;;;;;7.83;77.57;101745.66;5063046;28;20047;-79
2021/12/16 00:55:22;;;;;;;25.02;14.10;;;;;;;7.79;77.65;101737.97;5049658;28;20044;-79
2021/12/16 00:57:51;;;;;;;29.58;14.02;;;;;;;7.82;77.53;101733.38;5038787;28;20106;-79
2021/12/16 01:00:19;;;;;;;24.35;13.40;;;;;;;7.83;77.44;101743.00;5047753;28;20087;-80
2021/12/16 01:03:06;;;;;;;27.33;14.63;;;;;;;7.83;77.36;101753.59;5068918;28;20492;-80
2021/12/16 01:08:34;;;;;;;24.58;12.40;;;;;;;7.79;77.04;101752.03;5064754;28;20043;-79
2021/12/16 01:34:13;;;;;;;24.63;12.32;;;;;;;7.76;77.49;101770.69;5030254;28;20044;-79
2021/12/16 01:50:16;;;;;;;23.45;12.13;;;;;;;7.74;77.22;101759.31;5061371;28;20063;-79
2021/12/16 01:53:07;;;;;;;26.13;12.73;;;;;;;7.76;77.40;101767.16;5052325;28;20078;-79
2021/12/16 01:55:45;;;;;;;23.25;11.63;;;;;;;7.73;77.47;101776.09;5028363;28;20093;-79
2021/12/16 01:58:20;;;;;;;23.63;11.85;;;;;;;7.76;77.59;101768.06;5057838;28;20491;-79
2021/12/16 02:01:10;;;;;;;23.35;11.85;;;;;;;7.72;77.29;101763.81;5050741;28;20127;-79
2021/12/16 02:03:44;;;;;;;24.13;11.27;;;;;;;7.73;77.26;101760.22;5042854;28;20124;-79
2021/12/16 02:08:51;;;;;;;23.55;11.27;;;;;;;7.72;77.38;101755.88;5056422;28;20563;-79
2021/12/16 02:11:40;;;;;;;27.10;12.27;;;;;;;7.73;77.64;101762.03;5056867;28;20053;-79
2021/12/16 02:28:39;;;;;;;24.25;11.77;;;;;;;7.70;77.28;101760.38;5040793;28;20534;-79
2021/12/16 02:36:22;;;;;;;19.98;11.15;;;;;;;7.68;77.48;101756.94;5038045;28;20063;-79
2021/12/16 02:38:54;;;;;;;24.65;12.10;;;;;;;7.67;77.33;101768.47;5046392;28;20131;-79
2021/12/16 02:41:22;;;;;;;20.35;10.82;;;;;;;7.70;77.40;101764.81;5061185;28;20039;-80
2021/12/16 02:44:12;;;;;;;21.90;11.43;;;;;;;7.69;77.47;101758.69;5049581;28;20507;-79
2021/12/16 02:49:31;;;;;;;22.77;11.57;;;;;;;7.68;77.45;101758.72;5064437;28;20058;-79
2021/12/16 02:51:58;;;;;;;23.48;12.60;;;;;;;7.70;77.39;101768.31;5044928;28;20052;-79
2021/12/16 02:54:28;;;;;;;21.63;10.43;;;;;;;7.68;77.08;101756.09;5077328;28;20122;-79
2021/12/16 02:56:55;;;;;;;20.83;10.60;;;;;;;7.69;77.18;101748.09;5043407;28;20469;-79
2021/12/16 02:59:29;;;;;;;23.08;11.52;;;;;;;7.68;77.18;101745.50;5061099;28;20045;-79
2021/12/16 03:02:01;;;;;;;23.08;10.85;;;;;;;7.68;77.17;101749.00;5061897;28;20056;-79
2021/12/16 03:04:30;;;;;;;23.10;12.20;;;;;;;7.69;77.47;101750.75;5029115;28;20054;-79
2021/12/16 03:06:59;;;;;;;24.92;12.63;;;;;;;7.69;77.47;101745.47;5061561;28;20040;-79
2021/12/16 03:10:07;;;;;;;24.15;11.77;;;;;;;7.69;77.24;101750.75;5060456;28;20053;-80
2021/12/16 03:15:11;;;;;;;18.42;9.90;;;;;;;7.65;77.37;101751.81;5060885;28;20052;-79
2021/12/16 03:17:56;;;;;;;27.33;11.88;;;;;;;7.66;77.43;101756.19;5064111;28;20127;-79
2021/12/16 03:20:35;;;;;;;22.60;11.00;;;;;;;7.66;77.64;101748.25;5014814;28;20049;-79
2021/12/16 03:28:55;;;;;;;24.05;11.38;;;;;;;7.64;77.43;101746.59;5030478;28;20047;-79
2021/12/16 03:34:31;;;;;;;22.83;11.88;;;;;;;7.62;77.62;101757.25;5062696;28;20052;-79
2021/12/16 03:37:15;;;;;;;23.02;10.93;;;;;;;7.61;77.54;101753.75;5027153;28;20097;-80
2021/12/16 03:39:51;;;;;;;29.27;12.70;;;;;;;7.59;77.33;101754.75;5077544;28;20045;-79
2021/12/16 03:42:36;;;;;;;21.70;12.18;;;;;;;7.53;77.52;101761.16;5046124;28;20048;-79
2021/12/16 03:48:20;;;;;;;23.60;10.52;;;;;;;7.60;77.44;101764.38;4989588;28;20057;-79
2021/12/16 03:50:47;;;;;;;26.33;12.70;;;;;;;7.62;77.50;101773.09;5062137;28;20040;-79
2021/12/16 03:53:16;;;;;;;31.38;14.63;;;;;;;7.62;77.25;101767.81;5062651;28;20490;-79
2021/12/16 03:55:47;;;;;;;29.75;14.07;;;;;;;7.58;77.14;101764.47;5046928;28;20559;-79
2021/12/16 03:58:15;;;;;;;28.50;13.65;;;;;;;7.61;77.31;101758.19;5065100;28;20047;-80
2021/12/16 04:00:51;;;;;;;31.98;13.18;;;;;;;7.58;77.31;101769.75;5047617;28;20515;-79
2021/12/16 04:03:19;;;;;;;28.85;13.77;;;;;;;7.61;77.25;101772.25;5058589;28;20052;-79
2021/12/16 04:05:46;;;;;;;29.85;13.70;;;;;;;7.60;77.36;101769.66;5022665;28;20052;-79
2021/12/16 04:08:14;;;;;;;29.23;12.13;;;;;;;7.61;77.36;101776.69;5046874;28;20048;-79
2021/12/16 04:11:04;;;;;;;30.23;12.18;;;;;;;7.58;77.27;101771.50;5063185;28;20117;-79
2021/12/16 04:13:55;;;;;;;25.60;10.95;;;;;;;7.59;77.42;101776.75;5028566;28;20047;-79
2021/12/16 04:16:40;;;;;;;24.58;12.30;;;;;;;7.54;77.43;101776.09;5011563;28;20166;-79
2021/12/16 04:19:12;;;;;;;26.83;12.05;;;;;;;7.59;77.45;101766.16;5042784;28;20454;-79
2021/12/16 04:21:48;;;;;;;25.27;12.60;;;;;;;7.57;77.59;101762.72;5077307;28;20052;-79
2021/12/16 04:24:14;;;;;;;25.02;11.50;;;;;;;7.59;77.54;101765.31;5082086;28;20044;-80
2021/12/16 04:26:43;;;;;;;28.95;12.52;;;;;;;7.60;77.38;101785.53;5067372;28;20130;-79
2021/12/16 04:29:11;;;;;;;36.35;19.77;;;;;;;7.60;77.37;101789.03;5060838;28;20140;-79
2021/12/16 04:31:39;;;;;;;34.47;16.80;;;;;;;7.60;76.96;101788.16;5015171;28;20054;-79
2021/12/16 04:34:07;;;;;;;29.45;15.75;;;;;;;7.58;77.31;101784.72;5048004;28;20044;-79
2021/12/16 04:36:37;;;;;;;30.25;15.70;;;;;;;7.58;77.28;101788.25;5036430;28;20039;-79
2021/12/16 04:39:10;;;;;;;25.35;12.75;;;;;;;7.57;76.83;101791.81;5047937;28;20044;-79
2021/12/16 04:41:41;;;;;;;21.63;11.52;;;;;;;7.57;77.30;101785.66;5067085;28;20990;-79
2021/12/16 04:44:11;;;;;;;25.00;10.85;;;;;;;7.58;77.00;101780.31;5058763;28;20043;-79
2021/12/16 04:46:38;;;;;;;21.95;10.98;;;;;;;7.58;77.19;101787.38;5064259;28;20048;-79
2021/12/16 04:49:08;;;;;;;24.58;13.38;;;;;;;7.57;77.27;101783.03;5074856;28;20127;-80
2021/12/16 04:51:41;;;;;;;25.95;13.27;;;;;;;7.57;77.27;101780.38;5046772;28;20048;-79
2021/12/16 04:54:09;;;;;;;26.65;11.98;;;;;;;7.56;77.05;101784.81;5057947;28;20040;-79
2021/12/16 04:56:49;;;;;;;23.15;10.85;;;;;;;7.48;77.03;101784.31;5060791;28;20124;-79
2021/12/16 04:59:18;;;;;;;32.85;13.05;;;;;;;7.54;77.37;101789.31;5040917;28;20495;-79
2021/12/16 05:01:51;;;;;;;25.52;11.77;;;;;;;7.54;77.33;101797.25;5064912;28;20070;-79
2021/12/16 05:04:40;;;;;;;21.55;11.00;;;;;;;7.53;77.34;101782.31;5052427;28;20068;-79
2021/12/16 05:07:07;;;;;;;28.27;12.80;;;;;;;7.54;77.48;101796.38;5078600;28;20476;-79
2021/12/16 05:12:07;;;;;;;23.85;11.15;;;;;;;7.54;77.24;101802.53;5030773;28;20056;-79
2021/12/16 05:14:34;;;;;;;22.95;12.07;;;;;;;7.55;77.07;101803.38;5064460;28;20071;-80
2021/12/16 05:17:06;;;;;;;25.17;10.85;;;;;;;7.54;77.28;101802.53;5062705;28;20058;-80
2021/12/16 05:19:33;;;;;;;23.95;11.45;;;;;;;7.53;77.27;101811.41;5063957;28;20119;-79
2021/12/16 05:24:15;;;;;;;27.75;14.65;;;;;;;7.53;77.04;101811.41;5064674;28;20047;-79
2021/12/16 05:24:47;;;;;;;27.02;13.75;;;;;;;7.52;77.04;101816.75;5044083;28;20051;-79
2021/12/16 05:27:19;;;;;;;24.35;12.55;;;;;;;7.52;77.16;101814.94;5057248;28;20063;-79
2021/12/16 05:29:47;;;;;;;24.20;12.90;;;;;;;7.53;77.18;101815.78;5077334;28;20051;-79
2021/12/16 05:32:15;;;;;;;27.05;13.20;;;;;;;7.52;77.10;101820.22;5059701;28;20720;-79
2021/12/16 05:34:44;;;;;;;31.27;13.80;;;;;;;7.50;77.31;101824.72;5047857;28;20058;-79
2021/12/16 05:37:12;;;;;;;26.60;12.20;;;;;;;7.51;77.18;101821.16;5051971;28;20670;-79
2021/12/16 05:39:41;;;;;;;28.23;12.77;;;;;;;7.51;77.19;101826.47;5048283;28;20048;-80
2021/12/16 05:42:24;;;;;;;;;;;;;;;7.30;77.82;101832.66;5035568;28;20135;-81
2021/12/16 05:44:52;;;;;;;27.42;12.02;;;;;;;7.45;77.38;101823.22;5062090;28;19927;-80
2021/12/16 05:47:19;;;;;;;28.40;12.18;;;;;;;7.48;77.54;101821.31;5061810;28;20093;-81
2021/12/16 05:49:48;;;;;;;27.08;13.10;;;;;;;7.49;77.31;101830.09;5047356;28;20047;-82
2021/12/16 05:52:16;;;;;;;29.48;12.88;;;;;;;7.49;77.32;101822.16;5047270;28;20122;-81
2021/12/16 05:54:43;;;;;;;23.48;10.85;;;;;;;7.49;77.50;101823.03;5055300;28;20052;-81
2021/12/16 05:57:26;;;;;;;27.40;11.32;;;;;;;7.48;77.55;101828.34;5059161;28;20055;-81
2021/12/16 06:00:01;;;;;;;27.23;12.07;;;;;;;7.49;77.22;101830.09;5066159;28;20048;-80
2021/12/16 06:02:29;;;;;;;25.25;11.85;;;;;;;7.49;77.36;101835.38;5080559;28;20054;-80
2021/12/16 06:04:56;;;;;;;26.90;11.73;;;;;;;7.48;77.24;101833.66;5060270;28;20044;-80
2021/12/16 06:07:23;;;;;;;27.52;11.80;;;;;;;7.47;77.37;101835.44;5046527;28;20052;-80
2021/12/16 06:09:50;;;;;;;27.52;12.40;;;;;;;7.48;77.37;101833.66;5061121;28;20403;-79
2021/12/16 06:12:17;;;;;;;28.45;12.77;;;;;;;7.48;77.33;101850.38;5048887;28;20049;-80
2021/12/16 06:15:33;;;;;;;28.48;13.63;;;;;;;7.48;77.31;101834.53;5068856;28;20044;-80
2021/12/16 06:28:46;;;;;;;26.80;13.20;;;;;;;7.43;77.15;101848.84;4988948;28;20507;-79
2021/12/16 06:31:13;;;;;;;25.95;12.90;;;;;;;7.43;77.21;101844.44;5046848;28;20048;-79
2021/12/16 06:33:40;;;;;;;25.98;12.90;;;;;;;7.44;77.29;101843.50;5049831;28;20542;-80
2021/12/16 06:36:07;;;;;;;24.30;12.55;;;;;;;7.44;77.33;101845.28;5060065;28;20036;-79
2021/12/16 06:38:34;;;;;;;24.02;11.73;;;;;;;7.44;77.08;101854.06;5060073;28;20136;-79
2021/12/16 06:41:17;;;;;;;24.77;11.85;;;;;;;7.41;77.26;101851.56;5016122;28;20040;-79
2021/12/16 06:44:22;;;;;;;28.48;12.50;;;;;;;7.42;77.49;101841.84;5009239;28;20058;-79
2021/12/16 06:46:53;;;;;;;25.25;12.27;;;;;;;7.41;77.24;101846.28;5026046;28;20064;-79
2021/12/16 06:49:22;;;;;;;24.55;12.07;;;;;;;7.42;77.12;101847.13;5045476;28;20055;-79
2021/12/16 06:51:54;;;;;;;22.27;11.43;;;;;;;7.42;77.37;101849.78;5059042;28;20045;-80
2021/12/16 06:54:32;;;;;;;29.85;13.55;;;;;;;7.41;77.47;101845.44;5043295;28;20048;-79
2021/12/16 06:59:34;;;;;;;28.73;13.43;;;;;;;7.41;77.20;101841.00;5004960;28;20063;-79
2021/12/16 07:02:12;;;;;;;31.52;14.25;;;;;;;7.42;77.25;101842.72;5020126;28;20049;-79
2021/12/16 07:04:39;;;;;;;40.47;17.73;;;;;;;7.41;77.15;101856.84;5031106;28;20052;-80
2021/12/16 07:07:07;;;;;;;46.47;17.75;;;;;;;7.42;77.34;101860.34;5057711;28;20049;-79
2021/12/16 07:09:35;;;;;;;40.10;16.85;;;;;;;7.41;77.31;101863.94;5041861;28;20516;-79
2021/12/16 07:12:03;;;;;;;36.42;14.93;;;;;;;7.41;77.42;101867.44;5043598;28;20049;-79
2021/12/16 07:14:38;;;;;;;33.70;16.45;;;;;;;7.40;77.26;101863.06;5044315;28;20110;-80
2021/12/16 07:17:10;;;;;;;35.78;15.20;;;;;;;7.36;77.14;101872.06;5023595;28;20045;-81
2021/12/16 07:19:39;;;;;;;32.10;15.93;;;;;;;7.38;77.19;101872.84;5025117;28;20041;-82
2021/12/16 07:22:06;;;;;;;37.25;15.90;;;;;;;7.38;77.04;101875.50;5042579;28;20636;-81
2021/12/16 07:24:33;;;;;;;36.13;16.67;;;;;;;7.37;77.02;101877.25;5011383;28;20049;-82
2021/12/16 07:27:00;;;;;;;37.20;17.33;;;;;;;7.39;77.01;101890.41;5027440;28;20062;-81
2021/12/16 07:29:27;;;;;;;33.05;17.42;;;;;;;7.36;76.99;101891.41;5045711;28;20067;-81
2021/12/16 07:31:55;;;;;;;30.52;15.43;;;;;;;7.37;77.07;101894.91;5067984;28;20064;-81
2021/12/16 07:34:22;;;;;;;30.63;12.98;;;;;;;7.39;77.22;101898.34;5069435;28;20036;-81
2021/12/16 07:36:49;;;;;;;27.20;13.77;;;;;;;7.37;76.98;101897.53;5041593;28;20095;-81
2021/12/16 07:39:18;;;;;;;30.17;13.95;;;;;;;7.37;77.05;101900.19;5031551;28;20052;-81
2021/12/16 07:41:49;;;;;;;31.02;14.25;;;;;;;7.36;77.19;101901.13;5059408;28;20821;-80
2021/12/16 07:44:17;;;;;;;30.58;14.90;;;;;;;7.37;77.08;101902.84;5054241;28;20048;-80
2021/12/16 07:46:51;;;;;;;33.95;17.33;;;;;;;7.33;77.13;101903.91;5047856;28;20045;-79
2021/12/16 07:49:24;;;;;;;41.10;18.10;;;;;;;7.34;76.94;101922.31;5012175;28;20055;-81
2021/12/16 07:51:52;;;;;;;37.13;16.45;;;;;;;7.36;77.07;101930.19;5050140;28;20047;-79
2021/12/16 07:54:20;;;;;;;27.02;13.25;;;;;;;7.36;76.98;101927.56;5061974;28;20391;-79
2021/12/16 07:56:49;;;;;;;24.10;12.63;;;;;;;7.36;77.07;101927.56;5044174;28;20048;-80
2021/12/16 07:59:17;;;;;;;23.30;11.13;;;;;;;7.35;77.10;101939.91;5066232;28;20045;-80
2021/12/16 08:01:47;;;;;;;26.25;12.90;;;;;;;7.36;77.35;101938.13;5066911;28;20399;-79
2021/12/16 08:04:20;;;;;;;15.80;7.90;;;;;;;7.41;79.20;101944.09;5030292;28;20049;-78
2021/12/16 08:06:50;;;;;;;30.20;12.93;;;;;;;7.45;77.85;101935.09;5060439;28;20048;-81
2021/12/16 08:09:18;;;;;;;26.48;12.80;;;;;;;7.45;77.38;101944.81;5055461;28;20411;-80
2021/12/16 08:11:48;;;;;;;23.08;11.50;;;;;;;7.44;77.00;101945.75;5064897;28;20048;-80
2021/12/16 08:14:16;;;;;;;26.45;12.23;;;;;;;7.43;76.94;101944.00;5059541;28;20033;-80
2021/12/16 08:16:43;;;;;;;23.17;11.35;;;;;;;7.41;76.84;101946.72;5064465;28;20123;-80
2021/12/16 08:19:10;;;;;;;29.55;12.75;;;;;;;7.39;77.20;101944.13;5072779;28;20040;-82
2021/12/16 08:21:38;;;;;;;25.08;12.18;;;;;;;7.39;77.09;101952.06;5068832;28;20058;-79
2021/12/16 08:24:07;;;;;;;24.17;12.07;;;;;;;7.37;77.08;101950.41;5064510;28;20051;-83
2021/12/16 08:26:36;;;;;;;26.40;13.55;;;;;;;7.39;77.13;101952.06;5061740;28;20401;-80
2021/12/16 08:29:04;;;;;;;27.05;11.82;;;;;;;7.38;77.00;101957.44;5079688;28;20051;-79
2021/12/16 08:31:33;;;;;;;22.20;11.70;;;;;;;7.38;77.23;101970.66;5067174;28;20057;-79
2021/12/16 08:34:00;;;;;;;26.10;11.82;;;;;;;7.38;76.91;101962.72;5045832;28;20623;-79
2021/12/16 08:36:28;;;;;;;28.90;13.20;;;;;;;7.39;77.29;101960.00;5074800;28;20045;-79
2021/12/16 08:38:56;;;;;;;27.77;11.95;;;;;;;7.37;77.19;101959.19;5059896;28;20052;-78
2021/12/16 08:41:27;;;;;;;28.45;12.40;;;;;;;7.38;77.25;101968.00;5075845;28;20427;-80
2021/12/16 08:43:53;;;;;;;29.65;12.85;;;;;;;7.38;77.15;101968.84;5054604;28;20044;-83
2021/12/16 08:46:23;;;;;;;26.35;13.73;;;;;;;7.39;77.09;101973.22;5057449;28;20131;-81
2021/12/16 08:48:51;;;;;;;32.35;13.93;;;;;;;7.40;77.18;101971.41;5063613;28;20094;-82
2021/12/16 08:51:30;;;;;;;29.70;14.65;;;;;;;7.34;77.13;101963.75;5050869;28;20788;-81
2021/12/16 08:53:57;;;;;;;31.58;14.43;;;;;;;7.39;77.17;101961.78;5040830;28;20033;-81
2021/12/16 08:56:27;;;;;;;32.97;15.65;;;;;;;7.39;77.14;101967.06;5062455;28;20686;-81
2021/12/16 08:58:56;;;;;;;31.17;14.45;;;;;;;7.39;77.05;101978.50;5063158;28;20048;-83
2021/12/16 09:01:27;;;;;;;34.67;14.88;;;;;;;7.39;77.16;101977.63;5059362;28;20044;-81
2021/12/16 09:03:57;;;;;;;37.53;15.82;;;;;;;7.39;77.05;101973.22;5057225;28;20488;-81
2021/12/16 09:06:26;;;;;;;29.85;14.43;;;;;;;7.42;77.09;101974.88;5060130;28;20097;-82
2021/12/16 09:08:53;;;;;;;37.60;15.98;;;;;;;7.42;77.10;101974.88;5060093;28;20048;-82
2021/12/16 09:11:23;;;;;;;37.60;16.75;;;;;;;7.43;76.93;101987.19;5058928;28;20048;-81
2021/12/16 09:13:54;;;;;;;36.35;16.60;;;;;;;7.41;77.01;101989.03;5059182;28;20052;-81
2021/12/16 09:16:24;;;;;;;34.73;14.87;;;;;;;7.42;77.14;101993.38;5076954;28;20517;-80
2021/12/16 09:18:52;;;;;;;34.47;15.43;;;;;;;7.44;77.08;101994.16;5045385;28;20068;-80
2021/12/16 09:21:22;;;;;;;33.83;16.13;;;;;;;7.43;77.06;101992.47;5060906;28;20045;-79
2021/12/16 09:23:50;;;;;;;35.28;16.58;;;;;;;7.44;76.97;102002.09;5058523;28;20045;-79
2021/12/16 09:26:18;;;;;;;40.05;17.17;;;;;;;7.45;76.81;102005.59;5030479;28;20058;-81
2021/12/16 09:28:46;;;;;;;42.90;18.83;;;;;;;7.44;77.00;102002.09;5075469;28;20100;-80
2021/12/16 09:31:15;;;;;;;38.83;17.50;;;;;;;7.45;76.78;102003.81;5079049;28;20041;-82
2021/12/16 09:33:45;;;;;;;42.38;19.08;;;;;;;7.44;76.72;102006.53;5063088;28;20056;-80
2021/12/16 09:36:13;;;;;;;45.75;18.95;;;;;;;7.46;76.72;102004.69;5059741;28;20458;-80
2021/12/16 09:38:41;;;;;;;35.05;14.30;;;;;;;7.47;76.84;102009.03;5073809;28;20136;-81
2021/12/16 09:41:08;;;;;;;38.90;17.25;;;;;;;7.47;76.84;102007.25;5044198;28;20056;-80
2021/12/16 09:43:39;;;;;;;46.60;21.58;;;;;;;7.47;76.93;102007.25;5056800;28;20048;-81
2021/12/16 09:46:10;;;;;;;39.30;16.52;;;;;;;7.46;76.84;102008.19;5041517;28;20259;-82
2021/12/16 09:48:39;;;;;;;39.70;15.77;;;;;;;7.48;76.90;102013.41;5058489;28;20059;-81
2021/12/16 09:51:10;;;;;;;39.45;16.40;;;;;;;7.47;76.85;102007.25;5059938;28;20148;-81
2021/12/16 09:53:38;;;;;;;35.50;17.42;;;;;;;7.51;76.88;102008.00;5052400;28;20044;-79
2021/12/16 09:56:09;;;;;;;38.78;18.42;;;;;;;7.49;77.17;102009.84;5061141;28;20059;-80
2021/12/16 09:58:41;;;;;;;35.83;15.25;;;;;;;7.49;77.00;102004.56;5048017;28;20051;-80
2021/12/16 10:01:10;;;;;;;39.43;16.93;;;;;;;7.50;77.04;102007.13;5059780;28;20040;-80
2021/12/16 10:03:43;;;;;;;34.38;16.00;;;;;;;7.47;76.68;102012.53;5044657;28;20443;-80
2021/12/16 10:06:10;;;;;;;36.25;17.83;;;;;;;7.50;76.81;102009.78;5048500;28;20040;-80
2021/12/16 10:08:37;;;;;;;31.17;14.88;;;;;;;7.52;76.79;102007.94;5059046;28;20051;-80
2021/12/16 10:11:05;;;;;;;40.05;16.38;;;;;;;7.53;76.77;102008.78;5059790;28;20051;-79
2021/12/16 10:13:43;;;;;;;41.03;17.48;;;;;;;7.54;76.82;102006.09;5060579;28;20044;-79
2021/12/16 10:18:37;;;;;;;37.08;15.60;;;;;;;7.55;76.93;102012.22;5059308;28;20045;-80
2021/12/16 10:21:06;;;;;;;40.03;17.63;;;;;;;7.54;76.80;102008.72;5041681;28;20053;-81
2021/12/16 10:23:39;;;;;;;38.08;17.15;;;;;;;7.53;76.62;101999.09;5065709;28;20063;-80
2021/12/16 10:26:17;;;;;;;38.00;17.80;;;;;;;7.51;76.65;101998.28;5077592;28;20047;-80
2021/12/16 10:28:46;;;;;;;41.75;18.23;;;;;;;7.55;77.02;102004.31;5076691;28;20466;-81
2021/12/16 10:31:21;;;;;;;43.45;18.17;;;;;;;7.53;76.84;101996.44;5056867;28;20064;-86
2021/12/16 10:34:05;;;;;;;38.75;18.10;;;;;;;7.53;76.70;101993.81;5025421;28;20048;-81
2021/12/16 10:36:33;;;;;;;;;;;;;;;7.35;77.05;101995.41;5041463;28;20407;-83
2021/12/16 10:39:09;;;;;;;36.80;16.73;;;;;;;7.51;76.92;101993.00;5058866;28;19920;-81
2021/12/16 10:41:47;;;;;;;41.85;18.65;;;;;;;7.51;76.79;101990.38;5064654;28;20488;-80
2021/12/16 10:44:21;;;;;;;36.88;16.80;;;;;;;7.56;76.77;102004.25;5026084;28;20052;-80
2021/12/16 10:47:10;;;;;;;37.22;16.33;;;;;;;7.49;76.82;101999.28;5064637;28;20218;-80
2021/12/16 10:49:40;;;;;;;39.17;17.83;;;;;;;7.58;77.00;101999.75;5060352;28;20052;-80
2021/12/16 10:52:26;;;;;;;40.03;17.73;;;;;;;7.55;77.07;101991.94;5065724;28;20063;-81
2021/12/16 10:54:57;;;;;;;43.33;17.95;;;;;;;7.59;76.85;101995.34;5032424;28;20519;-80
2021/12/16 10:57:26;;;;;;;39.50;18.85;;;;;;;7.60;76.70;101997.03;5061569;28;20036;-80
2021/12/16 10:59:59;;;;;;;38.85;17.02;;;;;;;7.60;76.79;102003.19;5079848;28;20068;-80
2021/12/16 11:02:32;;;;;;;39.05;17.58;;;;;;;7.61;76.78;101994.34;5060877;28;20037;-80
2021/12/16 11:05:13;;;;;;;41.40;17.35;;;;;;;7.57;76.68;101999.81;5060972;28;21848;-81
2021/12/16 11:07:43;;;;;;;37.08;15.38;;;;;;;7.63;76.79;102003.97;5046416;28;20061;-81
2021/12/16 11:10:27;;;;;;;33.30;16.25;;;;;;;7.57;76.82;101998.03;5048036;28;20053;-80
2021/12/16 11:13:02;;;;;;;39.80;17.20;;;;;;;7.60;76.69;101997.88;5044258;28;20534;-79
2021/12/16 11:15:32;;;;;;;39.97;17.95;;;;;;;7.66;76.79;101991.50;5082603;28;20054;-80
2021/12/16 11:18:14;;;;;;;37.22;16.15;;;;;;;7.60;76.75;101997.03;5033990;28;20036;-82
2021/12/16 11:21:01;;;;;;;33.33;15.43;;;;;;;7.63;76.65;101996.06;5047256;28;20418;-80
2021/12/16 11:23:35;;;;;;;36.90;16.58;;;;;;;7.67;76.73;101987.06;5070986;28;20039;-80
2021/12/16 11:26:08;;;;;;;40.88;18.50;;;;;;;7.67;76.67;101989.72;5073641;28;20036;-81
2021/12/16 11:28:39;;;;;;;39.70;17.33;;;;;;;7.66;76.83;101988.88;5044427;28;20045;-81
2021/12/16 11:31:13;;;;;;;37.13;16.65;;;;;;;7.62;76.64;101997.84;5016182;28;20105;-81
2021/12/16 11:33:57;;;;;;;38.42;17.58;;;;;;;7.60;76.73;101983.81;5065562;28;20052;-81
2021/12/16 11:36:26;;;;;;;43.33;17.73;;;;;;;7.68;76.85;101986.16;5041362;28;20040;-81
2021/12/16 11:38:54;;;;;;;35.30;15.63;;;;;;;7.72;77.13;101987.75;5062978;28;20075;-81
2021/12/16 11:41:35;;;;;;;41.47;18.75;;;;;;;7.66;76.87;101982.69;5059453;28;20498;-82
2021/12/16 11:44:19;;;;;;;39.30;16.80;;;;;;;7.70;76.56;101976.38;5041256;28;20052;-81
2021/12/16 11:47:00;;;;;;;41.20;17.55;;;;;;;7.65;76.98;101981.84;5055711;28;20040;-82
2021/12/16 11:49:41;;;;;;;39.67;17.65;;;;;;;7.68;76.86;101986.16;5043362;28;20164;-82
2021/12/16 11:52:16;;;;;;;37.38;16.83;;;;;;;7.66;76.84;101987.97;4992675;28;20056;-82
2021/12/16 11:54:50;;;;;;;40.42;16.38;;;;;;;7.68;76.88;101976.41;5049473;28;20039;-81
2021/12/16 11:57:41;;;;;;;37.22;17.20;;;;;;;7.71;76.81;101972.78;5065347;28;20369;-81
2021/12/16 12:00:19;;;;;;;37.47;16.92;;;;;;;7.72;77.19;101967.44;5007068;28;20059;-82
2021/12/16 12:02:57;;;;;;;40.45;17.45;;;;;;;7.74;77.05;101975.31;5044533;28;20377;-81
2021/12/16 12:05:28;;;;;;;38.45;17.38;;;;;;;7.75;76.92;101972.59;5045169;28;20064;-80
2021/12/16 12:07:56;;;;;;;39.67;17.13;;;;;;;7.78;77.10;101967.16;5075862;28;20051;-80
2021/12/16 12:10:38;;;;;;;37.30;16.50;;;;;;;7.75;76.90;101971.75;5065205;28;20835;-80
2021/12/16 12:13:38;;;;;;;37.80;17.20;;;;;;;7.74;77.14;101970.88;5043862;28;20040;-82
2021/12/16 12:16:13;;;;;;;38.45;17.08;;;;;;;7.86;76.83;101964.22;4996686;28;20336;-81
2021/12/16 12:18:42;;;;;;;40.33;16.70;;;;;;;7.89;76.96;101957.94;5078438;28;20040;-81
2021/12/16 12:21:19;;;;;;;34.33;16.23;;;;;;;7.85;76.61;101964.28;5062848;28;20060;-80
2021/12/16 12:23:49;;;;;;;37.83;16.95;;;;;;;7.91;76.77;101961.34;5029545;28;20535;-79
2021/12/16 12:26:19;;;;;;;40.83;18.70;;;;;;;7.92;76.87;101963.94;5061172;28;20052;-81
2021/12/16 12:28:48;;;;;;;39.55;17.52;;;;;;;7.93;76.77;101962.16;5055771;28;20053;-80
2021/12/16 12:31:17;;;;;;;38.55;17.08;;;;;;;7.94;76.86;101969.19;5061583;28;20043;-80
2021/12/16 12:33:44;;;;;;;39.72;18.08;;;;;;;7.96;76.94;101964.66;5062150;28;20049;-81
2021/12/16 12:36:14;;;;;;;38.95;16.83;;;;;;;7.95;76.72;101965.59;5063165;28;20454;-82
2021/12/16 12:38:41;;;;;;;39.92;18.23;;;;;;;7.96;77.09;101959.38;5056729;28;20123;-83
2021/12/16 12:41:10;;;;;;;45.10;18.67;;;;;;;7.98;76.66;101973.41;5050786;28;20051;-82
2021/12/16 12:43:37;;;;;;;38.45;17.23;;;;;;;7.95;76.69;101969.09;5047530;28;20051;-81
2021/12/16 12:46:06;;;;;;;39.40;18.40;;;;;;;7.97;76.82;101964.63;5056108;28;20048;-81
2021/12/16 12:48:36;;;;;;;45.58;18.95;;;;;;;7.96;76.55;101960.25;5057270;28;20052;-82
2021/12/16 12:51:05;;;;;;;38.97;16.80;;;;;;;7.94;76.67;101962.09;5079414;28;20078;-82
2021/12/16 12:53:46;;;;;;;33.25;16.70;;;;;;;7.93;76.76;101965.66;5048129;28;20044;-82
2021/12/16 12:56:19;;;;;;;40.70;18.20;;;;;;;7.87;76.56;101967.72;5057329;28;20044;-82
2021/12/16 12:59:11;;;;;;;36.30;16.88;;;;;;;7.84;76.73;101955.50;5063241;28;20048;-81
2021/12/16 13:01:56;;;;;;;39.45;16.73;;;;;;;7.81;76.92;101958.25;5005718;28;20057;-79
2021/12/16 13:04:30;;;;;;;36.63;16.85;;;;;;;7.91;76.67;101959.59;5039023;28;20390;-80
2021/12/16 13:07:06;;;;;;;34.05;16.63;;;;;;;7.88;76.76;101958.84;5058991;28;20036;-80
2021/12/16 13:09:49;;;;;;;15.52;8.30;;;;;;;7.88;80.13;101957.06;5059071;28;20044;-81
2021/12/16 13:12:40;;;;;;;38.83;16.98;;;;;;;7.95;77.97;101953.22;5061320;28;20042;-82
2021/12/16 13:26:42;;;;;;;34.38;16.13;;;;;;;7.94;76.87;101954.16;5019443;28;20052;-80
2021/12/16 13:30:04;;;;;;;35.22;17.15;;;;;;;7.99;77.07;101960.13;5005167;28;20048;-79
2021/12/16 13:32:22;;;;;;;35.40;17.08;;;;;;;7.93;76.98;101957.72;4997453;28;20037;-80
2021/12/16 13:35:23;;;;;;;33.58;16.70;;;;;;;7.93;76.92;101952.44;5003256;28;20099;-80
2021/12/16 13:37:55;;;;;;;39.17;18.05;;;;;;;7.94;77.11;101945.38;4995226;28;20049;-82
2021/12/16 13:40:32;;;;;;;36.88;16.45;;;;;;;7.95;77.03;101942.66;4973173;28;20140;-81
2021/12/16 13:43:20;;;;;;;35.10;16.55;;;;;;;7.86;76.82;101953.66;4980358;28;20045;-80
2021/12/16 13:45:59;;;;;;;34.28;16.23;;;;;;;7.98;77.04;101947.78;4987002;28;20046;-80
2021/12/16 14:06:20;;;;;;;36.13;16.02;;;;;;;7.95;77.22;101958.53;5053091;28;20052;-80
2021/12/16 14:08:49;;;;;;;;;;;;;;;7.75;77.45;101962.03;5058525;28;20071;-79
2021/12/16 14:12:13;;;;;;;39.13;17.65;;;;;;;7.87;77.26;101959.78;5061388;28;19936;-81
2021/12/16 14:23:13;;;;;;;37.42;17.10;;;;;;;7.95;77.15;101957.66;5080846;28;20060;-82
2021/12/16 14:32:55;;;;;;;28.65;13.70;;;;;;;7.98;77.52;101960.16;5044711;28;20086;-79
2021/12/16 14:34:51;;;;;;;29.00;13.50;;;;;;;7.98;77.63;101957.53;5034166;28;20044;-80
2021/12/16 14:39:47;;;;;;;27.83;12.85;;;;;;;8.00;77.71;101964.47;5080936;28;20415;-81
2021/12/16 14:42:40;;;;;;;25.05;12.38;;;;;;;7.97;77.51;101971.69;5031771;28;20048;-80
2021/12/16 14:45:39;;;;;;;26.48;13.13;;;;;;;7.94;77.65;101971.84;5047274;28;20048;-81